Chetumal, Mexico

12:21 PM CDT on October 24, 2014 (GMT -0500)
Chetumal International | Change Station
CLOSE
Current Station
Airport
Location: Chetumal,
Elevation: 39 ft
Nearby Weather Stations

Elev 39 ft 18.48 °N, 88.30 °W | Updated 19 minutes ago

Overcast
Overcast
81 °F
Feels Like 87 °F
N
0
Wind Variable Wind from North

Today
High -- | Low -- °F
--% Chance of Precip.
Yesterday
High -- | Low -- °F
Precip. -- in
6:49 AM 6:24 PM
New Moon, 1% visible
Pressure 29.85 in
Visibility 6.0 miles
Clouds Mostly Cloudy 1000 ft
Overcast 8000 ft
Heat Index 87 °F
Dew Point 77 °F
Humidity 89%
Rainfall 0.00 in
Snow Depth Not available.
UV 4 out of 12
Pollen Not available.
Air Quality Not available.
Flu Activity Not available.
SPECI MMCM 241702Z 00000KT 6SM BKN010 OVC080 27/25 A2985 RMK 8/62/ RTS

More Conditions Fewer Conditions

Pressure 29.85 in
Visibility 6.0 miles
Clouds Mostly Cloudy 1000 ft
Overcast 8000 ft
Heat Index 87 °F
Dew Point 77 °F
Humidity 89%
Rainfall 0.00 in
Snow Depth Not available.
UV 4 out of 12
Pollen Not available.
Air Quality Not available.
Flu Activity Not available.
SPECI MMCM 241702Z 00000KT 6SM BKN010 OVC080 27/25 A2985 RMK 8/62/ RTS

More Conditions Fewer Conditions

10-Day Weather Forecast

Almanac

Astronomy

Oct. 24, 2014 Rise Set
Actual Time 6:49 AM CDT 6:24 PM CDT
Civil Twilight 6:27 AM CDT 6:46 PM CDT
Nautical Twilight 6:01 AM CDT 7:12 PM CDT
Astronomical Twilight 5:36 AM CDT 7:38 PM CDT
Moon 7:24 AM CDT 7:10 PM CDT
Length of Visible Light 12h 19m
Length of Day
11h 34m
Tomorrow will be 0m 58s shorter.
New Moon, 1% of the Moon is Illuminated
Today
New Moon
Oct 30
First Quarter
Nov 6
Full
Nov 14
Last Quarter
Nov 22
New

Today's Extremes

Country Highs Country Lows

Community

WunderPhotos

Upload Photos

1,764,620 photos uploaded!

WunderBlogs® & News

Nearby

Snow Depth

Not available.

Earthquake Activity

City Distance Mag. Time & Date
No recent earthquake activity has been reported nearby.
Minimum magnitude displayed is 2.5.

Coastal Water Temperatures

Place Temperature
No Stations Reporting

Nearby Weather Stations